createdAt,value
2022-11-17T00:01:56.599Z,99.90
2022-11-17T00:04:26.828Z,99.90
2022-11-17T00:06:53.534Z,99.90
2022-11-17T00:09:20.628Z,99.90
2022-11-17T00:12:07.257Z,99.90
2022-11-17T00:14:36.523Z,99.90
2022-11-17T00:17:06.207Z,99.90
2022-11-17T00:19:51.494Z,99.90
2022-11-17T00:22:18.339Z,99.90
2022-11-17T00:24:45.029Z,99.90
2022-11-17T00:27:12.399Z,99.90
2022-11-17T00:29:39.582Z,99.90
2022-11-17T00:32:29.950Z,99.90
2022-11-17T00:34:56.676Z,99.90
2022-11-17T00:37:23.633Z,99.90
2022-11-17T00:39:50.344Z,99.90
2022-11-17T00:42:17.024Z,99.90
2022-11-17T00:44:43.994Z,99.90
2022-11-17T00:47:11.212Z,99.90
2022-11-17T00:49:37.966Z,99.90
2022-11-17T00:52:04.828Z,99.90
2022-11-17T00:54:31.603Z,99.90
2022-11-17T00:56:58.289Z,99.90
2022-11-17T00:59:25.140Z,99.90
2022-11-17T01:01:51.841Z,99.90
2022-11-17T01:04:18.738Z,99.90
2022-11-17T01:06:48.084Z,99.90
2022-11-17T01:09:14.846Z,99.90
2022-11-17T01:11:42.347Z,99.90
2022-11-17T01:14:17.448Z,99.90
2022-11-17T01:16:44.496Z,99.90
2022-11-17T01:19:13.389Z,99.90
2022-11-17T01:21:40.187Z,99.90
2022-11-17T01:24:07.192Z,99.90
2022-11-17T01:26:36.559Z,99.90
2022-11-17T01:29:04.368Z,99.90
2022-11-17T01:31:33.377Z,99.90
2022-11-17T01:34:00.397Z,99.90
2022-11-17T01:36:53.235Z,99.90
2022-11-17T01:39:20.254Z,99.90
2022-11-17T01:41:47.106Z,99.90
2022-11-17T01:44:35.715Z,99.90
2022-11-17T01:47:04.713Z,99.90
2022-11-17T01:49:32.024Z,99.90
2022-11-17T01:52:05.147Z,99.90
2022-11-17T01:54:35.303Z,99.90
2022-11-17T01:57:10.310Z,99.90
2022-11-17T01:59:42.068Z,99.90
2022-11-17T02:02:09.359Z,99.90
2022-11-17T02:04:41.307Z,99.90
2022-11-17T02:07:25.426Z,99.90
2022-11-17T02:09:56.118Z,99.90
2022-11-17T02:12:26.492Z,99.90
2022-11-17T02:14:54.520Z,99.90
2022-11-17T02:17:23.908Z,99.90
2022-11-17T02:20:01.709Z,99.90
2022-11-17T02:22:59.096Z,99.90
2022-11-17T02:25:35.155Z,99.90
2022-11-17T02:28:20.909Z,99.90
2022-11-17T02:31:25.631Z,99.90
2022-11-17T02:34:03.779Z,99.90
2022-11-17T02:36:53.086Z,99.90
2022-11-17T02:39:26.550Z,99.90
2022-11-17T02:42:14.158Z,99.90
2022-11-17T02:45:00.842Z,99.90
2022-11-17T02:47:30.483Z,99.90
2022-11-17T02:50:05.227Z,99.90
2022-11-17T02:52:31.991Z,99.90
2022-11-17T02:55:07.896Z,99.90
2022-11-17T02:57:37.339Z,99.90
2022-11-17T03:00:09.187Z,99.90
2022-11-17T03:02:54.620Z,99.90
2022-11-17T03:05:44.359Z,99.90
2022-11-17T03:08:49.160Z,99.90
2022-11-17T03:11:16.453Z,99.90
2022-11-17T03:14:06.870Z,99.90
2022-11-17T03:16:36.499Z,99.90
2022-11-17T03:19:18.111Z,99.90
2022-11-17T03:21:51.352Z,99.90
2022-11-17T03:24:42.073Z,99.90
2022-11-17T03:27:24.924Z,99.90
2022-11-17T03:29:56.973Z,99.90
2022-11-17T03:32:24.820Z,99.90
2022-11-17T03:34:57.535Z,99.90
2022-11-17T03:37:30.604Z,99.90
2022-11-17T03:40:07.529Z,99.90
2022-11-17T03:42:36.428Z,99.90
2022-11-17T03:45:20.168Z,99.90
2022-11-17T03:47:49.003Z,99.90
2022-11-17T03:50:22.908Z,99.90
2022-11-17T03:52:49.924Z,99.90
2022-11-17T03:55:17.067Z,99.90
2022-11-17T03:58:01.023Z,99.90
2022-11-17T04:00:27.655Z,99.90
2022-11-17T04:02:56.436Z,99.90
2022-11-17T04:05:23.082Z,99.90
2022-11-17T04:07:49.776Z,99.90
2022-11-17T04:10:18.938Z,99.90
2022-11-17T04:13:05.021Z,99.90
2022-11-17T04:15:50.262Z,99.90
2022-11-17T04:18:17.458Z,99.90
2022-11-17T04:20:44.391Z,99.90
2022-11-17T04:23:14.172Z,99.90
2022-11-17T04:26:02.681Z,99.90
2022-11-17T04:28:39.817Z,99.90
2022-11-17T04:31:18.792Z,99.90
2022-11-17T04:33:47.780Z,99.90
2022-11-17T04:36:17.386Z,99.90
2022-11-17T04:38:46.254Z,99.90
2022-11-17T04:41:33.829Z,99.90
2022-11-17T04:44:01.713Z,99.90
2022-11-17T04:46:31.046Z,99.90
2022-11-17T04:48:58.649Z,99.90
2022-11-17T04:51:26.474Z,99.90
2022-11-17T04:53:53.679Z,99.90
2022-11-17T04:56:22.453Z,99.90
2022-11-17T04:58:49.936Z,99.90
2022-11-17T05:01:18.721Z,99.90
2022-11-17T05:03:51.022Z,99.90
2022-11-17T05:06:44.732Z,99.90
2022-11-17T05:09:16.421Z,99.90
2022-11-17T05:12:02.399Z,99.90
2022-11-17T05:14:29.636Z,99.90
2022-11-17T05:17:10.430Z,99.90
2022-11-17T05:19:47.957Z,99.90
2022-11-17T05:22:40.740Z,99.90
2022-11-17T05:25:07.892Z,99.90
2022-11-17T05:27:35.349Z,99.90
2022-11-17T05:30:03.974Z,99.90
2022-11-17T05:32:30.619Z,99.90
2022-11-17T05:34:57.272Z,99.90
2022-11-17T05:37:23.990Z,99.90
2022-11-17T05:39:50.691Z,99.90
2022-11-17T05:42:17.384Z,99.90
2022-11-17T05:44:44.123Z,99.90
2022-11-17T05:47:10.782Z,99.90
2022-11-17T05:49:37.517Z,99.90
2022-11-17T05:52:04.419Z,99.90
2022-11-17T05:54:31.090Z,99.90
2022-11-17T05:57:12.282Z,99.90
2022-11-17T05:59:49.408Z,99.90
2022-11-17T06:02:31.143Z,99.90
2022-11-17T06:04:58.116Z,99.90
2022-11-17T06:07:25.103Z,99.90
2022-11-17T06:09:52.380Z,99.90
2022-11-17T06:12:19.090Z,99.90
2022-11-17T06:14:45.906Z,99.90
2022-11-17T06:17:26.347Z,99.90
2022-11-17T06:20:01.425Z,99.90
2022-11-17T06:22:28.955Z,99.90
2022-11-17T06:24:56.218Z,99.90
2022-11-17T06:27:25.443Z,99.90
2022-11-17T06:29:52.927Z,99.90
2022-11-17T06:32:20.000Z,99.90
2022-11-17T06:34:55.283Z,99.90
2022-11-17T06:37:23.832Z,99.90
2022-11-17T06:39:50.594Z,99.90
2022-11-17T06:42:17.276Z,99.90
2022-11-17T06:44:44.074Z,99.90
2022-11-17T06:47:10.719Z,99.90
2022-11-17T06:49:37.384Z,99.90
2022-11-17T06:52:04.053Z,99.90
2022-11-17T06:54:30.724Z,99.90
2022-11-17T06:56:57.362Z,99.90
2022-11-17T06:59:24.047Z,99.90
2022-11-17T07:01:51.063Z,99.90
2022-11-17T07:04:17.705Z,99.90
2022-11-17T07:06:44.373Z,99.90
2022-11-17T07:09:11.020Z,99.90
2022-11-17T07:11:37.858Z,99.90
2022-11-17T07:14:04.534Z,99.90
2022-11-17T07:16:32.568Z,99.90
2022-11-17T07:18:59.849Z,99.90
2022-11-17T07:21:26.581Z,99.90
2022-11-17T07:23:53.391Z,99.90
2022-11-17T07:26:20.102Z,99.90
2022-11-17T07:28:46.807Z,99.90
2022-11-17T07:31:13.461Z,99.90
2022-11-17T07:33:40.131Z,99.90
2022-11-17T07:36:09.795Z,99.90
2022-11-17T07:38:38.589Z,99.90
2022-11-17T07:41:07.340Z,99.90
2022-11-17T07:43:35.894Z,99.90
2022-11-17T07:46:13.376Z,99.90
2022-11-17T07:48:40.868Z,99.90
2022-11-17T07:51:07.890Z,99.90
2022-11-17T07:53:35.528Z,99.90
2022-11-17T07:56:10.297Z,99.90
2022-11-17T07:58:38.132Z,99.90
2022-11-17T08:01:07.507Z,99.90
2022-11-17T08:03:34.276Z,99.90
2022-11-17T08:06:05.720Z,99.90
2022-11-17T08:08:32.715Z,99.90
2022-11-17T08:11:07.743Z,99.90
2022-11-17T08:13:35.317Z,99.90
2022-11-17T08:16:02.868Z,99.90
2022-11-17T08:18:29.806Z,99.90
2022-11-17T08:21:11.748Z,99.90
2022-11-17T08:23:38.625Z,99.90
2022-11-17T08:26:06.863Z,99.90
2022-11-17T08:28:36.830Z,99.90
2022-11-17T08:31:05.187Z,99.90
2022-11-17T08:33:32.597Z,99.90
2022-11-17T08:36:00.341Z,99.90
2022-11-17T08:38:28.956Z,99.90
2022-11-17T08:41:01.745Z,99.90
2022-11-17T08:43:29.142Z,99.90
2022-11-17T08:45:56.135Z,99.90
2022-11-17T08:48:23.775Z,99.90
2022-11-17T08:50:51.183Z,99.90
2022-11-17T08:53:19.635Z,99.90
2022-11-17T08:55:46.808Z,99.90
2022-11-17T08:58:13.976Z,99.90
2022-11-17T09:00:41.275Z,99.90
2022-11-17T09:03:09.892Z,99.90
2022-11-17T09:05:45.262Z,99.90
2022-11-17T09:08:44.028Z,99.90
2022-11-17T09:11:05.150Z,99.90
2022-11-17T09:13:31.981Z,99.90
2022-11-17T09:16:03.246Z,99.90
2022-11-17T09:18:30.328Z,99.90
2022-11-17T09:21:12.047Z,99.90
2022-11-17T09:23:39.668Z,99.90
2022-11-17T09:26:12.628Z,99.90
2022-11-17T09:28:39.773Z,99.90
2022-11-17T09:31:19.095Z,99.90
2022-11-17T09:33:46.523Z,99.90
2022-11-17T09:36:15.377Z,99.90
2022-11-17T09:38:42.677Z,99.90
2022-11-17T09:41:12.130Z,99.90
2022-11-17T09:43:43.022Z,99.90
2022-11-17T09:46:15.670Z,99.90
2022-11-17T09:48:53.687Z,99.90
2022-11-17T09:51:23.920Z,99.90
2022-11-17T09:54:18.329Z,99.90
2022-11-17T09:56:47.264Z,99.90
2022-11-17T09:59:16.334Z,99.90
2022-11-17T10:01:43.127Z,99.90
2022-11-17T10:04:16.744Z,99.90
2022-11-17T10:06:47.276Z,99.90
2022-11-17T10:09:26.260Z,99.90
2022-11-17T10:11:54.408Z,99.90
2022-11-17T10:14:22.234Z,99.90
2022-11-17T10:16:58.409Z,99.90
2022-11-17T10:19:30.784Z,99.90
2022-11-17T10:22:03.747Z,99.90
2022-11-17T10:24:54.950Z,99.90
2022-11-17T10:27:27.925Z,99.90
2022-11-17T10:30:07.085Z,99.90
2022-11-17T10:32:48.195Z,99.90
2022-11-17T10:35:27.177Z,99.90
2022-11-17T10:38:01.974Z,99.90
2022-11-17T10:40:39.249Z,99.90
2022-11-17T10:43:39.199Z,99.90
2022-11-17T10:46:14.541Z,99.90
2022-11-17T10:48:57.669Z,99.90
2022-11-17T10:51:26.707Z,99.90
2022-11-17T10:54:11.823Z,99.90
2022-11-17T10:56:44.405Z,99.90
2022-11-17T10:59:26.468Z,99.90
2022-11-17T11:01:53.230Z,99.90
2022-11-17T11:04:32.550Z,99.90
2022-11-17T11:07:20.860Z,99.90
2022-11-17T11:09:56.349Z,99.90
2022-11-17T11:12:34.271Z,99.90
2022-11-17T11:15:03.215Z,99.90
2022-11-17T11:17:30.209Z,99.90
2022-11-17T11:19:58.829Z,99.90
2022-11-17T11:22:38.132Z,99.90
2022-11-17T11:25:35.792Z,99.90
2022-11-17T11:28:34.622Z,99.90
2022-11-17T11:31:14.682Z,99.90
2022-11-17T11:34:17.398Z,99.90
2022-11-17T11:36:58.807Z,99.90
2022-11-17T11:39:45.691Z,99.90
2022-11-17T11:42:34.958Z,99.90
2022-11-17T11:45:01.600Z,99.90
2022-11-17T11:47:33.975Z,99.90
2022-11-17T11:50:14.456Z,99.90
2022-11-17T11:52:47.825Z,99.90
2022-11-17T11:55:22.252Z,99.90
2022-11-17T11:57:53.267Z,99.90
2022-11-17T12:00:20.519Z,99.90
2022-11-17T12:02:53.572Z,99.90
2022-11-17T12:05:29.040Z,99.90
2022-11-17T12:08:19.560Z,99.90
2022-11-17T12:11:30.977Z,99.90
2022-11-17T12:13:58.932Z,99.90
2022-11-17T12:16:36.526Z,99.90
2022-11-17T12:19:42.445Z,99.90
2022-11-17T12:22:09.708Z,99.90
2022-11-17T12:24:41.262Z,99.90
2022-11-17T12:27:33.974Z,99.90
2022-11-17T12:30:02.722Z,99.90
2022-11-17T12:32:44.872Z,99.90
2022-11-17T12:35:31.501Z,99.90
2022-11-17T12:38:16.532Z,99.90
2022-11-17T12:40:46.149Z,99.90
2022-11-17T12:43:15.662Z,99.90
2022-11-17T12:46:03.919Z,99.90
2022-11-17T12:48:39.395Z,99.90
2022-11-17T12:51:35.779Z,99.90
2022-11-17T12:54:16.402Z,99.90
2022-11-17T12:57:17.143Z,99.90
2022-11-17T12:59:49.604Z,99.90
2022-11-17T13:02:35.483Z,99.90
2022-11-17T13:05:14.559Z,99.90
2022-11-17T13:07:41.367Z,99.90
2022-11-17T13:10:27.023Z,99.30
2022-11-17T13:13:16.823Z,98.10
2022-11-17T13:15:44.726Z,98.00
2022-11-17T13:18:38.439Z,98.40
2022-11-17T13:21:36.140Z,97.30
2022-11-17T13:24:02.848Z,95.70
2022-11-17T13:26:35.923Z,96.80
2022-11-17T13:29:04.644Z,95.10
2022-11-17T13:31:31.759Z,98.00
2022-11-17T13:34:13.430Z,96.30
2022-11-17T13:37:17.127Z,93.30
2022-11-17T13:39:58.557Z,92.60
2022-11-17T13:42:27.878Z,93.40
2022-11-17T13:44:57.364Z,94.70
2022-11-17T13:47:28.952Z,91.40
2022-11-17T13:49:55.646Z,91.20
2022-11-17T13:52:41.939Z,86.10
2022-11-17T13:55:17.975Z,76.50
2022-11-17T13:58:05.165Z,66.10
2022-11-17T14:00:32.969Z,62.90
2022-11-17T14:03:26.364Z,60.90
2022-11-17T14:05:59.351Z,60.10
2022-11-17T14:08:31.728Z,62.90
2022-11-17T14:11:14.218Z,65.90
2022-11-17T14:14:12.077Z,67.00
2022-11-17T14:16:40.915Z,69.90
2022-11-17T14:19:16.929Z,69.90
2022-11-17T14:22:08.538Z,71.80
2022-11-17T14:24:36.369Z,75.70
2022-11-17T14:27:11.883Z,77.50
2022-11-17T14:29:38.710Z,79.70
2022-11-17T14:32:05.516Z,86.10
2022-11-17T14:34:32.314Z,87.60
2022-11-17T14:36:58.979Z,88.00
2022-11-17T14:39:25.698Z,90.00
2022-11-17T14:41:52.430Z,91.40
2022-11-17T14:44:19.245Z,93.70
2022-11-17T14:46:46.000Z,93.20
2022-11-17T14:49:13.125Z,93.80
2022-11-17T14:51:40.248Z,96.00
2022-11-17T14:54:07.133Z,95.90
2022-11-17T14:56:34.790Z,96.20
2022-11-17T14:59:02.185Z,97.00
2022-11-17T15:01:31.993Z,97.10
2022-11-17T15:04:15.733Z,97.00
2022-11-17T15:06:49.922Z,99.30
2022-11-17T15:09:16.651Z,99.90
2022-11-17T15:11:43.359Z,99.90
2022-11-17T15:14:10.892Z,99.90
2022-11-17T15:16:37.623Z,99.90
2022-11-17T15:19:04.590Z,99.90
2022-11-17T15:21:31.311Z,99.90
2022-11-17T15:23:58.150Z,99.90
2022-11-17T15:26:25.077Z,99.90
2022-11-17T15:28:51.735Z,99.90
2022-11-17T15:31:19.964Z,99.90
2022-11-17T15:33:47.977Z,99.90
2022-11-17T15:36:17.401Z,99.90
2022-11-17T15:38:44.448Z,99.90
2022-11-17T15:41:12.854Z,99.90
2022-11-17T15:43:41.376Z,99.90
2022-11-17T15:46:12.549Z,99.90
2022-11-17T15:48:43.299Z,99.90
2022-11-17T15:51:27.604Z,99.90
2022-11-17T15:53:58.259Z,99.90
2022-11-17T15:56:27.726Z,99.90
2022-11-17T15:59:01.732Z,99.90
2022-11-17T16:01:35.341Z,99.90
2022-11-17T16:04:14.678Z,99.90
2022-11-17T16:06:42.938Z,99.90
2022-11-17T16:09:10.317Z,99.90
2022-11-17T16:11:37.618Z,99.90
2022-11-17T16:14:05.204Z,99.90
2022-11-17T16:16:34.915Z,99.90
2022-11-17T16:19:02.253Z,99.90
2022-11-17T16:21:29.263Z,99.90
2022-11-17T16:23:57.295Z,99.90
2022-11-17T16:26:25.611Z,99.90
2022-11-17T16:29:07.744Z,99.90
2022-11-17T16:31:36.405Z,99.90
2022-11-17T16:34:11.765Z,99.90
2022-11-17T16:36:40.289Z,99.90
2022-11-17T16:39:09.822Z,99.90
2022-11-17T16:41:39.424Z,99.90
2022-11-17T16:44:11.864Z,99.90
2022-11-17T16:46:41.102Z,99.90
2022-11-17T16:49:10.922Z,99.90
2022-11-17T16:51:37.723Z,99.90
2022-11-17T16:54:06.846Z,99.90
2022-11-17T16:56:34.415Z,99.90
2022-11-17T16:59:01.312Z,99.90
2022-11-17T17:01:30.487Z,99.90
2022-11-17T17:04:06.322Z,99.90
2022-11-17T17:06:34.110Z,99.90
2022-11-17T17:09:03.326Z,99.90
2022-11-17T17:11:32.017Z,99.90
2022-11-17T17:14:00.298Z,99.90
2022-11-17T17:16:27.038Z,99.90
2022-11-17T17:19:02.003Z,99.90
2022-11-17T17:21:29.126Z,99.90
2022-11-17T17:23:56.412Z,99.90
2022-11-17T17:26:25.688Z,99.90
2022-11-17T17:28:55.017Z,99.90
2022-11-17T17:31:22.657Z,99.90
2022-11-17T17:33:50.806Z,99.90
2022-11-17T17:36:23.474Z,99.90
2022-11-17T17:38:55.409Z,99.90
2022-11-17T17:41:27.237Z,99.90
2022-11-17T17:43:56.763Z,99.90
2022-11-17T17:46:24.259Z,99.90
2022-11-17T17:48:51.120Z,99.90
2022-11-17T17:51:20.293Z,99.90
2022-11-17T17:53:50.427Z,99.90
2022-11-17T17:56:19.418Z,99.90
2022-11-17T17:58:47.987Z,99.90
2022-11-17T18:01:20.065Z,99.90
2022-11-17T18:03:48.449Z,99.90
2022-11-17T18:06:17.720Z,99.90
2022-11-17T18:08:45.595Z,99.90
2022-11-17T18:11:16.366Z,99.90
2022-11-17T18:13:44.868Z,99.90
2022-11-17T18:16:13.928Z,99.90
2022-11-17T18:18:42.088Z,99.90
2022-11-17T18:21:11.496Z,99.90
2022-11-17T18:23:38.432Z,99.90
2022-11-17T18:26:25.480Z,99.90
2022-11-17T18:29:02.515Z,99.90
2022-11-17T18:31:32.252Z,99.90
2022-11-17T18:34:01.457Z,99.90
2022-11-17T18:36:29.056Z,99.90
2022-11-17T18:38:58.316Z,99.90
2022-11-17T18:41:26.443Z,99.90
2022-11-17T18:43:54.512Z,99.90
2022-11-17T18:46:24.611Z,99.90
2022-11-17T18:48:52.297Z,99.90
2022-11-17T18:51:24.423Z,99.90
2022-11-17T18:53:52.641Z,99.90
2022-11-17T18:56:22.405Z,99.90
2022-11-17T18:58:49.791Z,99.90
2022-11-17T19:01:21.538Z,99.90
2022-11-17T19:03:53.484Z,99.90
2022-11-17T19:06:21.934Z,99.90
2022-11-17T19:08:49.471Z,99.90
2022-11-17T19:11:17.875Z,99.90
2022-11-17T19:13:45.544Z,99.90
2022-11-17T19:16:14.818Z,99.90
2022-11-17T19:18:42.662Z,99.90
2022-11-17T19:21:15.448Z,99.90
2022-11-17T19:23:49.613Z,99.90
2022-11-17T19:26:25.871Z,99.90
2022-11-17T19:28:57.621Z,99.90
2022-11-17T19:31:24.906Z,99.90
2022-11-17T19:33:51.633Z,99.90
2022-11-17T19:36:23.750Z,99.90
2022-11-17T19:38:54.967Z,99.90
2022-11-17T19:41:34.226Z,99.90
2022-11-17T19:44:06.474Z,99.90
2022-11-17T19:46:33.731Z,99.90
2022-11-17T19:49:00.486Z,99.90
2022-11-17T19:51:32.367Z,99.90
2022-11-17T19:54:03.030Z,99.90
2022-11-17T19:56:29.869Z,99.90
2022-11-17T19:58:56.889Z,99.90
2022-11-17T20:01:28.379Z,99.90
2022-11-17T20:03:56.430Z,99.90
2022-11-17T20:06:27.208Z,99.90
2022-11-17T20:08:55.497Z,99.90
2022-11-17T20:11:24.924Z,99.90
2022-11-17T20:13:52.034Z,99.90
2022-11-17T20:16:26.852Z,99.90
2022-11-17T20:18:56.168Z,99.90
2022-11-17T20:21:23.657Z,99.90
2022-11-17T20:23:50.514Z,99.90
2022-11-17T20:26:23.093Z,99.90
2022-11-17T20:28:50.661Z,99.90
2022-11-17T20:31:24.208Z,99.90
2022-11-17T20:33:51.848Z,99.90
2022-11-17T20:36:20.674Z,99.90
2022-11-17T20:39:02.047Z,99.90
2022-11-17T20:41:29.468Z,99.90
2022-11-17T20:43:58.392Z,99.90
2022-11-17T20:46:25.597Z,99.90
2022-11-17T20:48:52.476Z,99.90
2022-11-17T20:51:21.454Z,99.90
2022-11-17T20:53:48.562Z,99.90
2022-11-17T20:56:16.420Z,99.90
2022-11-17T20:58:43.567Z,99.90
2022-11-17T21:01:19.256Z,99.90
2022-11-17T21:03:46.925Z,99.90
2022-11-17T21:06:14.156Z,99.90
2022-11-17T21:08:42.399Z,99.90
2022-11-17T21:11:32.051Z,99.90
2022-11-17T21:13:59.548Z,99.90
2022-11-17T21:16:26.234Z,99.90
2022-11-17T21:18:52.970Z,99.90
2022-11-17T21:21:19.971Z,99.90
2022-11-17T21:23:46.766Z,99.90
2022-11-17T21:26:17.153Z,99.90
2022-11-17T21:28:44.397Z,99.90
2022-11-17T21:31:27.886Z,99.90
2022-11-17T21:33:57.403Z,99.90
2022-11-17T21:36:26.268Z,99.90
2022-11-17T21:38:53.579Z,99.90
2022-11-17T21:41:23.533Z,99.90
2022-11-17T21:43:51.796Z,99.90
2022-11-17T21:46:21.407Z,99.90
2022-11-17T21:48:48.503Z,99.90
2022-11-17T21:51:21.356Z,99.90
2022-11-17T21:53:52.584Z,99.90
2022-11-17T21:56:19.319Z,99.90
2022-11-17T21:58:46.319Z,99.90
2022-11-17T22:01:15.874Z,99.90
2022-11-17T22:03:43.108Z,99.90
2022-11-17T22:06:12.688Z,99.90
2022-11-17T22:08:41.657Z,99.90
2022-11-17T22:11:11.023Z,99.90
2022-11-17T22:13:37.789Z,99.90
2022-11-17T22:16:10.792Z,99.90
2022-11-17T22:18:37.834Z,99.90
2022-11-17T22:21:06.783Z,99.90
2022-11-17T22:23:34.127Z,99.90
2022-11-17T22:26:03.646Z,99.90
2022-11-17T22:28:30.601Z,99.90
2022-11-17T22:30:57.456Z,99.90
2022-11-17T22:33:24.453Z,99.90
2022-11-17T22:35:51.276Z,99.90
2022-11-17T22:38:18.260Z,99.90
2022-11-17T22:40:45.041Z,99.90
2022-11-17T22:43:15.265Z,99.90
2022-11-17T22:45:42.373Z,99.90
2022-11-17T22:48:09.098Z,99.90
2022-11-17T22:50:36.517Z,99.90
2022-11-17T22:53:03.854Z,99.90
2022-11-17T22:55:33.113Z,99.90
2022-11-17T22:57:59.924Z,99.90
2022-11-17T23:00:26.872Z,99.90
2022-11-17T23:02:53.620Z,99.90
2022-11-17T23:05:20.375Z,99.90
2022-11-17T23:07:47.048Z,99.90
2022-11-17T23:10:14.659Z,99.90
2022-11-17T23:12:41.575Z,99.90
2022-11-17T23:15:08.606Z,99.90
2022-11-17T23:17:35.507Z,99.90
2022-11-17T23:20:02.267Z,99.90
2022-11-17T23:22:29.184Z,99.90
2022-11-17T23:24:55.926Z,99.90
2022-11-17T23:27:22.717Z,99.90
2022-11-17T23:29:49.849Z,99.90
2022-11-17T23:32:16.538Z,99.90
2022-11-17T23:34:43.225Z,99.90
2022-11-17T23:37:09.946Z,99.90
2022-11-17T23:39:36.638Z,99.90
2022-11-17T23:42:03.358Z,99.90
2022-11-17T23:44:30.282Z,99.90
2022-11-17T23:46:57.299Z,99.90
2022-11-17T23:49:24.030Z,99.90
2022-11-17T23:51:50.718Z,99.90
2022-11-17T23:54:17.876Z,99.90
2022-11-17T23:56:44.582Z,99.90
2022-11-17T23:59:11.448Z,99.90
